Time;durP1;ratioP1;P1;durP2;ratioP2;P2;SDS_P1;SDS_P2;PMS_P1;PMS_P2;Temp;Humidity;BMP_temperature;BMP_pressure;BME280_temperature;BME280_humidity;BME280_pressure;Samples;Min_cycle;Max_cycle;Signal;HPM_P1;HPM_P2
2023/04/26 00:00:32;;;;;;;8.27;6.80;;;7.60;99.90;;;;;;6141875;23;20186;-70
2023/04/26 00:03:00;;;;;;;10.25;9.25;;;7.60;99.90;;;;;;6141437;23;20258;-70
2023/04/26 00:05:28;;;;;;;8.95;8.10;;;7.60;99.90;;;;;;6134750;23;20208;-70
2023/04/26 00:07:57;;;;;;;8.57;7.78;;;7.60;99.90;;;;;;6137370;23;20234;-70
2023/04/26 00:10:24;;;;;;;8.73;7.55;;;7.70;99.90;;;;;;6140764;23;20180;-70
2023/04/26 00:12:51;;;;;;;9.32;7.80;;;7.60;99.90;;;;;;6140173;23;20593;-69
2023/04/26 00:15:18;;;;;;;8.93;8.02;;;7.60;99.90;;;;;;6137786;23;20277;-70
2023/04/26 00:17:46;;;;;;;8.32;7.20;;;7.60;99.90;;;;;;6137901;23;20565;-70
2023/04/26 00:20:13;;;;;;;9.13;7.90;;;7.60;99.90;;;;;;6135451;23;20187;-70
2023/04/26 00:22:40;;;;;;;8.75;7.85;;;7.60;99.90;;;;;;6142714;23;20191;-70
2023/04/26 00:25:10;;;;;;;12.07;8.10;;;7.70;99.90;;;;;;6132970;23;20189;-70
2023/04/26 00:27:36;;;;;;;8.02;7.40;;;7.70;99.90;;;;;;6143211;23;20229;-70
2023/04/26 00:30:04;;;;;;;9.02;7.90;;;7.70;99.90;;;;;;6141435;23;20280;-70
2023/04/26 00:32:34;;;;;;;8.35;7.65;;;7.70;99.90;;;;;;6147422;23;20232;-70
2023/04/26 00:35:02;;;;;;;7.80;7.10;;;7.70;99.90;;;;;;6137512;23;20218;-70
2023/04/26 00:37:30;;;;;;;9.05;7.95;;;7.60;99.90;;;;;;6143734;23;20199;-70
2023/04/26 00:39:57;;;;;;;8.20;7.13;;;7.60;99.90;;;;;;6143401;23;20204;-70
2023/04/26 00:42:27;;;;;;;9.20;7.45;;;7.50;99.90;;;;;;6146623;23;20181;-70
2023/04/26 00:44:56;;;;;;;7.50;6.80;;;7.50;99.90;;;;;;6134160;23;20242;-70
2023/04/26 00:47:24;;;;;;;9.23;7.40;;;7.40;99.90;;;;;;6137699;23;20232;-70
2023/04/26 00:49:51;;;;;;;7.55;6.93;;;7.40;99.90;;;;;;6139585;23;20245;-70
2023/04/26 00:52:18;;;;;;;8.02;7.20;;;7.30;99.90;;;;;;6139610;23;20184;-70
2023/04/26 00:54:45;;;;;;;8.15;7.35;;;7.30;99.90;;;;;;6138557;23;20239;-70
2023/04/26 00:57:12;;;;;;;8.95;7.70;;;7.20;99.90;;;;;;6144804;23;20275;-70
2023/04/26 00:59:41;;;;;;;8.27;7.47;;;7.20;99.90;;;;;;6145226;23;20212;-70
2023/04/26 01:02:08;;;;;;;9.02;8.15;;;7.10;99.90;;;;;;6137654;23;20260;-70
2023/04/26 01:04:36;;;;;;;10.70;8.40;;;7.10;99.90;;;;;;6129625;23;20266;-70
2023/04/26 01:07:03;;;;;;;9.70;7.80;;;7.10;99.90;;;;;;6142309;23;20572;-70
2023/04/26 01:09:32;;;;;;;9.00;7.90;;;7.10;99.90;;;;;;6134562;23;20185;-70
2023/04/26 01:11:59;;;;;;;9.93;9.02;;;7.10;99.90;;;;;;6141690;23;20195;-70
2023/04/26 01:14:27;;;;;;;12.48;8.82;;;7.10;99.90;;;;;;6131985;23;20247;-70
2023/04/26 01:16:57;;;;;;;10.27;8.35;;;7.10;99.90;;;;;;6141675;23;20221;-70
2023/04/26 01:19:24;;;;;;;9.27;8.30;;;7.10;99.90;;;;;;6131842;23;20717;-70
2023/04/26 01:21:51;;;;;;;10.73;8.13;;;7.10;99.90;;;;;;6133301;23;20454;-70
2023/04/26 01:24:19;;;;;;;8.52;7.68;;;7.10;99.90;;;;;;6133928;23;20306;-70
2023/04/26 01:26:47;;;;;;;10.63;8.68;;;7.10;99.90;;;;;;6145035;23;20237;-70
2023/04/26 01:29:18;;;;;;;7.93;7.13;;;7.10;99.90;;;;;;6145755;23;20189;-70
2023/04/26 01:31:46;;;;;;;8.15;7.35;;;7.10;99.90;;;;;;6144017;23;20700;-70
2023/04/26 01:34:13;;;;;;;8.18;7.05;;;7.10;99.90;;;;;;6128373;23;20183;-70
2023/04/26 01:36:40;;;;;;;7.65;6.90;;;7.10;99.90;;;;;;6135357;23;20285;-70
2023/04/26 01:39:08;;;;;;;8.80;6.90;;;7.10;99.90;;;;;;6131724;23;20650;-70
2023/04/26 01:41:36;;;;;;;9.55;7.75;;;7.10;99.90;;;;;;6142298;23;20228;-70
2023/04/26 01:44:03;;;;;;;8.05;6.68;;;7.10;99.90;;;;;;6139099;23;20600;-70
2023/04/26 01:46:30;;;;;;;7.25;6.05;;;7.10;99.90;;;;;;6134388;23;20207;-70
2023/04/26 01:48:57;;;;;;;10.18;6.63;;;7.10;99.90;;;;;;6137201;23;20793;-70
2023/04/26 01:51:24;;;;;;;6.20;5.53;;;7.00;99.90;;;;;;6141944;23;20270;-70
2023/04/26 01:53:52;;;;;;;8.15;6.07;;;7.00;99.90;;;;;;6140617;23;20226;-70
2023/04/26 01:56:19;;;;;;;8.10;5.82;;;7.00;99.90;;;;;;6141802;23;20226;-70
2023/04/26 01:58:47;;;;;;;6.05;5.55;;;7.00;99.90;;;;;;6128448;23;20655;-70
2023/04/26 02:01:14;;;;;;;8.63;6.00;;;7.00;99.90;;;;;;6134142;23;20224;-70
2023/04/26 02:03:41;;;;;;;8.60;5.57;;;7.00;99.90;;;;;;6139134;23;20233;-70
2023/04/26 02:06:08;;;;;;;6.97;5.30;;;7.00;99.90;;;;;;6129880;23;20261;-70
2023/04/26 02:08:36;;;;;;;6.85;5.80;;;7.00;99.90;;;;;;6139245;23;20193;-70
2023/04/26 02:11:02;;;;;;;8.93;6.28;;;7.00;99.90;;;;;;6140393;23;20572;-70
2023/04/26 02:13:30;;;;;;;6.10;5.00;;;7.00;99.90;;;;;;6134613;23;21962;-70
2023/04/26 02:15:59;;;;;;;7.40;6.45;;;7.00;99.90;;;;;;6142144;23;20276;-70
2023/04/26 02:18:26;;;;;;;6.78;6.00;;;7.00;99.90;;;;;;6138935;23;20270;-70
2023/04/26 02:20:53;;;;;;;7.40;6.15;;;7.00;99.90;;;;;;6139070;23;20194;-70
2023/04/26 02:23:20;;;;;;;7.80;5.95;;;7.10;99.90;;;;;;6138081;23;20183;-70
2023/04/26 02:25:49;;;;;;;7.00;5.80;;;7.10;99.90;;;;;;6133937;23;20291;-70
2023/04/26 02:28:16;;;;;;;8.27;6.40;;;7.10;99.90;;;;;;6145439;23;20366;-70
2023/04/26 02:30:44;;;;;;;8.07;5.70;;;7.10;99.90;;;;;;6142170;23;20830;-70
2023/04/26 02:33:12;;;;;;;7.43;6.32;;;7.10;99.90;;;;;;6141920;23;20280;-70
2023/04/26 02:35:39;;;;;;;7.93;6.95;;;7.10;99.90;;;;;;6129468;23;20668;-70
2023/04/26 02:38:07;;;;;;;9.02;6.68;;;7.10;99.90;;;;;;6141658;23;20194;-70
2023/04/26 02:40:34;;;;;;;10.98;6.57;;;7.10;99.90;;;;;;6146012;23;20225;-70
2023/04/26 02:43:01;;;;;;;8.65;6.53;;;7.10;99.90;;;;;;6139274;23;20267;-70
2023/04/26 02:45:28;;;;;;;6.78;5.72;;;7.10;99.90;;;;;;6130569;23;20293;-70
2023/04/26 02:47:55;;;;;;;7.32;6.63;;;7.10;99.90;;;;;;6137145;23;20224;-70
2023/04/26 02:50:24;;;;;;;12.02;7.20;;;7.10;99.90;;;;;;6139497;23;20204;-70
2023/04/26 02:52:51;;;;;;;7.68;6.90;;;7.10;99.90;;;;;;6146072;23;20185;-70
2023/04/26 02:55:18;;;;;;;9.45;7.20;;;7.00;99.90;;;;;;6130425;23;20215;-70
2023/04/26 02:57:45;;;;;;;8.85;7.95;;;7.00;99.90;;;;;;6141328;23;20217;-70
2023/04/26 03:00:13;;;;;;;9.15;8.25;;;7.00;99.90;;;;;;6134893;23;20184;-70
2023/04/26 03:02:41;;;;;;;9.60;8.20;;;7.10;99.90;;;;;;6134810;23;20186;-70
2023/04/26 03:05:08;;;;;;;9.65;8.65;;;7.00;99.90;;;;;;6139565;23;20231;-70
2023/04/26 03:07:37;;;;;;;12.05;8.38;;;7.00;99.90;;;;;;6125041;23;20248;-70
2023/04/26 03:10:04;;;;;;;10.40;9.35;;;7.00;99.90;;;;;;6142215;23;20192;-70
2023/04/26 03:12:31;;;;;;;11.23;9.23;;;7.00;99.90;;;;;;6144400;23;20191;-70
2023/04/26 03:14:59;;;;;;;13.73;9.48;;;6.90;99.90;;;;;;6125062;23;20195;-70
2023/04/26 03:17:26;;;;;;;10.93;9.82;;;6.90;99.90;;;;;;6142080;23;20244;-70
2023/04/26 03:19:53;;;;;;;10.40;8.27;;;6.90;99.90;;;;;;6138967;23;20188;-70
2023/04/26 03:22:20;;;;;;;9.10;8.20;;;6.80;99.90;;;;;;6140019;23;20349;-70
2023/04/26 03:24:48;;;;;;;11.73;8.80;;;6.90;99.90;;;;;;6134703;23;20191;-70
2023/04/26 03:27:16;;;;;;;9.73;8.82;;;6.80;99.90;;;;;;6126123;23;20180;-71
2023/04/26 03:29:43;;;;;;;9.52;8.52;;;6.70;99.90;;;;;;6131293;23;20305;-71
2023/04/26 03:32:10;;;;;;;10.68;9.68;;;6.70;99.90;;;;;;6122215;23;20183;-70
2023/04/26 03:34:36;;;;;;;10.80;9.20;;;6.70;99.90;;;;;;6136495;23;20602;-70
2023/04/26 03:37:04;;;;;;;11.52;9.50;;;6.70;99.90;;;;;;6139629;23;20225;-70
2023/04/26 03:39:31;;;;;;;10.68;9.63;;;6.60;99.90;;;;;;6131477;23;20597;-70
2023/04/26 03:42:00;;;;;;;11.10;10.00;;;6.60;99.90;;;;;;6136003;23;20332;-69
2023/04/26 03:44:27;;;;;;;12.25;10.02;;;6.60;99.90;;;;;;6135515;23;20180;-70
2023/04/26 03:46:54;;;;;;;12.95;11.18;;;6.60;99.90;;;;;;6145803;23;20280;-70
2023/04/26 03:49:20;;;;;;;15.15;11.07;;;6.50;99.90;;;;;;6147235;23;20632;-70
2023/04/26 03:51:48;;;;;;;15.32;12.95;;;6.50;99.90;;;;;;6132874;23;20546;-70
2023/04/26 03:54:15;;;;;;;14.13;12.70;;;6.50;99.90;;;;;;6147398;23;20266;-70
2023/04/26 03:56:42;;;;;;;14.23;12.90;;;6.40;99.90;;;;;;6145923;23;20225;-70
2023/04/26 03:59:11;;;;;;;15.40;12.95;;;6.40;99.90;;;;;;6136988;23;20542;-70
2023/04/26 04:01:38;;;;;;;14.70;13.05;;;6.40;99.90;;;;;;6140988;23;20698;-71
2023/04/26 04:04:05;;;;;;;13.90;12.35;;;6.30;99.90;;;;;;6138528;23;20197;-71
2023/04/26 04:06:33;;;;;;;15.48;13.50;;;6.30;99.90;;;;;;6147687;23;20210;-70
2023/04/26 04:08:59;;;;;;;17.80;15.00;;;6.20;99.90;;;;;;6129694;23;20187;-71
2023/04/26 04:11:27;;;;;;;18.38;15.77;;;6.20;99.90;;;;;;6135309;23;20211;-70
2023/04/26 04:13:54;;;;;;;15.27;13.75;;;6.20;99.90;;;;;;6147019;23;20183;-71
2023/04/26 04:16:22;;;;;;;17.40;15.40;;;6.20;99.90;;;;;;6144591;23;20218;-71
2023/04/26 04:18:49;;;;;;;18.48;14.70;;;6.20;99.90;;;;;;6144517;23;20937;-71
2023/04/26 04:21:16;;;;;;;17.08;15.32;;;6.10;99.90;;;;;;6142618;23;20227;-71
2023/04/26 04:23:43;;;;;;;17.95;15.63;;;6.20;99.90;;;;;;6138015;23;20191;-69
2023/04/26 04:26:11;;;;;;;17.58;15.70;;;6.20;99.90;;;;;;6131564;23;20202;-70
2023/04/26 04:28:40;;;;;;;16.20;13.38;;;6.20;99.90;;;;;;6138447;23;20196;-82
2023/04/26 04:31:08;;;;;;;15.95;12.75;;;6.20;99.90;;;;;;6134452;23;20589;-83
2023/04/26 04:33:37;;;;;;;13.90;12.48;;;6.60;99.90;;;;;;6143832;23;20234;-87
2023/04/26 04:36:05;;;;;;;13.43;12.02;;;6.60;99.90;;;;;;6150273;23;20218;-90
2023/04/26 04:38:32;;;;;;;14.23;11.90;;;6.60;99.90;;;;;;6143157;23;20204;-89
2023/04/26 04:40:59;;;;;;;14.98;13.00;;;6.60;99.90;;;;;;6129346;23;20244;-71
2023/04/26 04:43:27;;;;;;;14.70;12.23;;;6.50;99.90;;;;;;6138127;23;20215;-72
2023/04/26 04:45:54;;;;;;;15.35;12.43;;;6.50;99.90;;;;;;6138386;23;20212;-72
2023/04/26 04:48:21;;;;;;;14.52;13.13;;;6.50;99.90;;;;;;6141027;23;20191;-71
2023/04/26 04:50:50;;;;;;;15.70;14.00;;;6.50;99.90;;;;;;6141643;23;20234;-71
2023/04/26 04:53:17;;;;;;;15.43;13.20;;;6.50;99.90;;;;;;6147252;23;20660;-72
2023/04/26 04:55:44;;;;;;;14.43;12.98;;;6.50;99.90;;;;;;6140708;23;20214;-72
2023/04/26 04:58:13;;;;;;;15.90;14.25;;;6.50;99.90;;;;;;6146675;23;20271;-72
2023/04/26 05:00:40;;;;;;;17.25;15.32;;;6.40;99.90;;;;;;6133036;23;20659;-71
2023/04/26 05:03:08;;;;;;;18.30;15.40;;;6.40;99.90;;;;;;6133887;23;20257;-72
2023/04/26 05:05:35;;;;;;;18.48;14.60;;;6.30;99.90;;;;;;6145029;23;20234;-72
2023/04/26 05:08:06;;;;;;;26.73;16.88;;;6.30;99.90;;;;;;6149320;23;20281;-70
2023/04/26 05:10:34;;;;;;;22.23;16.38;;;6.20;99.90;;;;;;6148563;23;20224;-71
2023/04/26 05:13:01;;;;;;;19.67;15.73;;;6.10;99.90;;;;;;6143777;23;20186;-71
2023/04/26 05:15:28;;;;;;;19.25;16.25;;;6.00;99.90;;;;;;6147885;23;20243;-70
2023/04/26 05:17:55;;;;;;;20.55;15.98;;;5.90;99.90;;;;;;6149499;23;20252;-71
2023/04/26 05:20:22;;;;;;;22.13;17.20;;;5.90;99.90;;;;;;6142331;23;20258;-72
2023/04/26 05:22:49;;;;;;;20.20;17.38;;;5.90;99.90;;;;;;6147096;23;20183;-71
2023/04/26 05:25:18;;;;;;;19.65;16.05;;;6.00;99.90;;;;;;6125268;23;20212;-71
2023/04/26 05:27:45;;;;;;;21.52;18.05;;;6.00;99.90;;;;;;6148293;23;20663;-71
2023/04/26 05:30:13;;;;;;;24.35;18.30;;;6.10;99.90;;;;;;6149394;23;20194;-71
2023/04/26 05:32:40;;;;;;;20.92;16.85;;;6.20;99.90;;;;;;6142147;23;20227;-71
2023/04/26 05:35:08;;;;;;;24.45;19.80;;;6.30;99.90;;;;;;6142741;23;20211;-72
2023/04/26 05:37:35;;;;;;;22.25;16.70;;;6.40;99.90;;;;;;6147815;23;20216;-71
2023/04/26 05:40:03;;;;;;;20.15;17.60;;;6.50;99.90;;;;;;6147987;23;20215;-70
2023/04/26 05:42:32;;;;;;;19.33;16.27;;;6.60;99.90;;;;;;6147222;23;20191;-71
2023/04/26 05:44:59;;;;;;;21.55;17.75;;;6.70;99.90;;;;;;6148878;23;20398;-71
2023/04/26 05:47:26;;;;;;;18.02;16.15;;;6.90;99.90;;;;;;6145527;23;20191;-71
2023/04/26 05:49:53;;;;;;;18.83;16.90;;;7.00;99.90;;;;;;6142387;23;20274;-71
2023/04/26 05:52:20;;;;;;;19.52;16.13;;;7.10;99.90;;;;;;6147250;23;20228;-71
2023/04/26 05:54:47;;;;;;;18.45;16.45;;;7.20;99.90;;;;;;6141011;23;20227;-71
2023/04/26 05:57:14;;;;;;;16.60;14.90;;;7.20;99.90;;;;;;6144329;23;20243;-71
2023/04/26 05:59:42;;;;;;;17.25;15.55;;;7.30;99.90;;;;;;6149465;23;20193;-71
2023/04/26 06:02:10;;;;;;;17.38;15.32;;;7.40;99.90;;;;;;6149342;23;20188;-71
2023/04/26 06:04:37;;;;;;;18.83;15.73;;;7.40;99.90;;;;;;6148538;23;20603;-71
2023/04/26 06:07:05;;;;;;;17.10;15.40;;;7.50;99.90;;;;;;6143341;23;20185;-71
2023/04/26 06:09:32;;;;;;;17.98;15.40;;;7.50;99.90;;;;;;6149568;23;20223;-71
2023/04/26 06:12:01;;;;;;;16.02;14.40;;;7.60;99.90;;;;;;6138933;23;20184;-71
2023/04/26 06:14:27;;;;;;;17.38;15.30;;;7.60;99.90;;;;;;6136760;23;20189;-71
2023/04/26 06:16:56;;;;;;;19.77;15.80;;;7.70;99.90;;;;;;6146960;23;20221;-71
2023/04/26 06:19:23;;;;;;;18.15;16.25;;;7.80;99.90;;;;;;6081272;23;20188;-71
2023/04/26 06:21:53;;;;;;;16.77;14.40;;;7.80;99.90;;;;;;6113701;23;20183;-71
2023/04/26 06:24:20;;;;;;;16.08;14.48;;;7.90;99.90;;;;;;6140803;23;20263;-71
2023/04/26 06:26:47;;;;;;;14.82;13.32;;;8.00;99.90;;;;;;6145000;23;20189;-71
2023/04/26 06:29:14;;;;;;;17.33;14.20;;;8.10;99.90;;;;;;6147463;23;20275;-71
2023/04/26 06:31:41;;;;;;;17.90;13.93;;;8.20;99.90;;;;;;6149081;23;20201;-71
2023/04/26 06:34:10;;;;;;;15.10;12.70;;;8.30;99.90;;;;;;6148446;23;20196;-71
2023/04/26 06:36:37;;;;;;;14.85;12.52;;;8.50;99.90;;;;;;6148700;23;20603;-71
2023/04/26 06:39:05;;;;;;;13.30;11.60;;;8.60;99.90;;;;;;6147085;23;20274;-71
2023/04/26 06:41:32;;;;;;;15.48;13.10;;;8.70;99.90;;;;;;6142746;23;20267;-71
2023/04/26 06:43:59;;;;;;;9.75;8.75;;;9.00;99.90;;;;;;6135015;23;20194;-71
2023/04/26 06:46:26;;;;;;;9.60;8.60;;;9.00;99.90;;;;;;6139774;23;20641;-71
2023/04/26 06:48:53;;;;;;;11.00;9.45;;;9.10;99.90;;;;;;6143690;23;20219;-71
2023/04/26 06:51:22;;;;;;;9.02;7.75;;;9.30;99.90;;;;;;6149227;23;20269;-71
2023/04/26 06:53:49;;;;;;;8.90;8.00;;;9.40;99.90;;;;;;6147093;23;20277;-71
2023/04/26 06:56:16;;;;;;;8.98;7.95;;;9.60;99.90;;;;;;6148060;23;20228;-71
2023/04/26 06:58:59;;;;;;;10.05;8.77;;;9.90;99.90;;;;;;6138305;23;20221;-71
2023/04/26 07:01:27;;;;;;;12.63;7.88;;;10.20;99.90;;;;;;6148596;23;20182;-71
2023/04/26 07:03:56;;;;;;;6.90;6.15;;;10.50;99.90;;;;;;6145025;23;20191;-72
2023/04/26 07:06:24;;;;;;;8.82;7.90;;;10.90;99.90;;;;;;6148651;23;20281;-72
2023/04/26 07:08:52;;;;;;;8.60;7.80;;;11.30;99.90;;;;;;6147047;23;20186;-71
2023/04/26 07:11:19;;;;;;;7.20;6.17;;;11.60;99.90;;;;;;6149097;23;20443;-71
2023/04/26 07:13:46;;;;;;;6.20;5.60;;;11.90;99.90;;;;;;6145003;23;20442;-71
2023/04/26 07:16:14;;;;;;;5.33;4.67;;;12.30;99.90;;;;;;6141176;23;20477;-71
2023/04/26 07:18:41;;;;;;;5.70;5.07;;;12.60;99.90;;;;;;6148241;23;20938;-72
2023/04/26 07:21:08;;;;;;;9.13;5.50;;;13.00;99.90;;;;;;6137145;23;20416;-72
2023/04/26 07:23:37;;;;;;;5.80;5.20;;;13.60;99.90;;;;;;6146008;23;20432;-72
2023/04/26 07:26:04;;;;;;;8.60;6.90;;;13.70;99.90;;;;;;6148616;23;20447;-72
2023/04/26 07:28:31;;;;;;;7.33;6.70;;;13.80;99.90;;;;;;6142148;23;20456;-71
2023/04/26 07:30:59;;;;;;;6.43;5.60;;;13.90;99.90;;;;;;6148953;23;20429;-72
2023/04/26 07:33:26;;;;;;;7.47;6.50;;;14.00;99.90;;;;;;6141309;23;20490;-71
2023/04/26 07:35:58;;;;;;;4.47;4.10;;;14.00;99.90;;;;;;6148410;23;20959;-71
2023/04/26 07:38:25;;;;;;;5.00;3.37;;;13.90;99.90;;;;;;6148391;23;20559;-71
2023/04/26 07:40:55;;;;;;;3.57;3.27;;;14.00;99.90;;;;;;6148803;23;20432;-72
2023/04/26 07:43:23;;;;;;;4.53;3.43;;;14.00;99.90;;;;;;6146316;23;20507;-72
2023/04/26 07:45:50;;;;;;;5.17;3.60;;;14.30;99.90;;;;;;6141087;23;20441;-71
2023/04/26 07:48:17;;;;;;;4.90;3.47;;;14.40;99.90;;;;;;6147812;23;20429;-72
2023/04/26 07:50:44;;;;;;;4.13;3.30;;;14.40;99.90;;;;;;6146642;23;20493;-72
2023/04/26 07:53:11;;;;;;;4.30;3.40;;;14.40;99.70;;;;;;6147686;23;20836;-71
2023/04/26 07:55:38;;;;;;;4.00;3.50;;;14.50;99.90;;;;;;6145456;23;20539;-72
2023/04/26 07:58:07;;;;;;;4.10;3.50;;;14.80;99.70;;;;;;6147989;23;20952;-71
2023/04/26 08:00:37;;;;;;;5.70;3.90;;;14.90;98.40;;;;;;6143081;23;20553;-72
2023/04/26 08:03:04;;;;;;;4.50;3.77;;;15.00;98.50;;;;;;6147255;23;20424;-71
2023/04/26 08:05:31;;;;;;;4.10;3.70;;;15.00;97.70;;;;;;6140975;23;20521;-71
2023/04/26 08:07:59;;;;;;;6.30;4.17;;;15.20;96.90;;;;;;6148591;23;20425;-72
2023/04/26 08:10:26;;;;;;;4.80;3.87;;;15.00;97.70;;;;;;6135205;23;20437;-72
2023/04/26 08:12:56;;;;;;;4.03;3.60;;;15.20;97.90;;;;;;6149322;23;20435;-72
2023/04/26 08:15:24;;;;;;;6.60;4.03;;;15.20;97.10;;;;;;6143046;23;20459;-72
2023/04/26 08:17:52;;;;;;;6.00;4.70;;;15.40;96.70;;;;;;6147666;23;20544;-72
2023/04/26 08:20:19;;;;;;;5.20;4.60;;;15.60;96.90;;;;;;6149715;23;20443;-71
2023/04/26 08:22:46;;;;;;;5.77;5.17;;;16.00;95.00;;;;;;6132118;23;20513;-72
2023/04/26 08:25:13;;;;;;;7.77;4.33;;;15.80;94.80;;;;;;6144344;23;20476;-71
2023/04/26 08:27:41;;;;;;;6.10;5.50;;;15.40;94.80;;;;;;6146205;23;20443;-71
2023/04/26 08:30:08;;;;;;;5.60;5.10;;;15.20;95.30;;;;;;6149463;23;20424;-71
2023/04/26 08:32:37;;;;;;;7.10;5.10;;;14.90;94.90;;;;;;6147538;23;20461;-71
2023/04/26 08:35:04;;;;;;;7.43;5.10;;;14.50;96.00;;;;;;6136493;23;20457;-72
2023/04/26 08:37:31;;;;;;;5.90;4.70;;;14.60;96.40;;;;;;6149545;23;20468;-71
2023/04/26 08:39:58;;;;;;;4.73;4.33;;;14.40;96.30;;;;;;6142688;23;21030;-71
2023/04/26 08:42:27;;;;;;;5.33;4.73;;;14.60;97.40;;;;;;6149879;23;20447;-71
2023/04/26 08:44:55;;;;;;;5.87;4.60;;;15.10;95.70;;;;;;6147104;23;20792;-72
2023/04/26 08:47:30;;;;;;;5.43;4.63;;;15.30;95.60;;;;;;6146922;23;20424;-72
2023/04/26 08:50:01;;;;;;;8.13;4.70;;;15.30;94.50;;;;;;6143418;23;20428;-72
2023/04/26 08:52:29;;;;;;;5.70;5.20;;;15.30;95.30;;;;;;6149604;23;20413;-72
2023/04/26 08:54:57;;;;;;;5.57;4.67;;;15.50;95.60;;;;;;6138337;23;20906;-72
2023/04/26 08:57:26;;;;;;;7.53;5.40;;;15.60;95.30;;;;;;6146869;23;20464;-71
2023/04/26 08:59:53;;;;;;;6.20;5.00;;;15.80;94.90;;;;;;6149160;23;20421;-71
2023/04/26 09:02:21;;;;;;;6.23;4.60;;;15.60;94.30;;;;;;6143634;23;20428;-72
2023/04/26 09:04:49;;;;;;;4.93;3.67;;;15.40;94.30;;;;;;6139446;23;20457;-72
2023/04/26 09:07:21;;;;;;;5.10;4.60;;;15.30;94.10;;;;;;6149228;23;20435;-72
2023/04/26 09:09:50;;;;;;;7.10;5.23;;;15.20;94.30;;;;;;6149407;23;20555;-71
2023/04/26 09:12:18;;;;;;;6.63;4.73;;;15.00;93.20;;;;;;6146824;23;20428;-71
2023/04/26 09:14:46;;;;;;;5.23;4.83;;;14.60;93.00;;;;;;6145367;23;20875;-71
2023/04/26 09:17:26;;;;;;;6.90;5.60;;;14.20;93.90;;;;;;6134698;23;20799;-72
2023/04/26 09:19:54;;;;;;;5.60;5.10;;;14.10;94.70;;;;;;6145477;23;20779;-72
2023/04/26 09:22:33;;;;;;;6.90;4.70;;;14.00;95.50;;;;;;6140136;23;20414;-72
2023/04/26 09:25:01;;;;;;;6.30;5.10;;;13.90;95.90;;;;;;6140123;23;20462;-72
2023/04/26 09:27:33;;;;;;;5.20;4.37;;;13.90;94.90;;;;;;6149686;23;20423;-71
2023/04/26 09:30:06;;;;;;;5.67;4.40;;;13.80;95.50;;;;;;6149829;23;20454;-72
2023/04/26 09:32:52;;;;;;;5.30;4.30;;;13.90;95.10;;;;;;6146805;23;20431;-71
2023/04/26 09:35:25;;;;;;;5.70;5.20;;;14.30;94.50;;;;;;6139997;23;20874;-72
2023/04/26 09:37:58;;;;;;;5.23;4.53;;;14.50;94.70;;;;;;6141115;23;20469;-71
2023/04/26 09:40:26;;;;;;;6.53;4.80;;;14.20;94.20;;;;;;6149324;23;20425;-71
2023/04/26 09:43:01;;;;;;;5.47;4.87;;;14.30;95.50;;;;;;6150243;23;20453;-72
2023/04/26 09:45:29;;;;;;;8.07;5.60;;;14.60;95.80;;;;;;6145578;23;20448;-72
2023/04/26 09:48:13;;;;;;;7.20;5.17;;;15.00;94.60;;;;;;6143647;23;20524;-72
2023/04/26 09:50:40;;;;;;;5.63;5.10;;;15.20;94.00;;;;;;6149295;23;20452;-72
2023/04/26 09:53:09;;;;;;;7.03;4.70;;;15.20;93.90;;;;;;6143761;23;21054;-72
2023/04/26 09:55:36;;;;;;;5.10;4.17;;;15.20;93.40;;;;;;6148376;23;20441;-72
2023/04/26 09:58:08;;;;;;;6.97;5.43;;;15.30;93.50;;;;;;6142407;23;20459;-71
2023/04/26 10:00:38;;;;;;;6.90;5.37;;;15.40;92.70;;;;;;6148660;23;20433;-71
2023/04/26 10:03:09;;;;;;;6.67;5.43;;;15.40;93.20;;;;;;6144265;23;20464;-71
2023/04/26 10:05:37;;;;;;;9.73;4.97;;;15.40;92.30;;;;;;6140923;23;20937;-72
2023/04/26 10:08:07;;;;;;;7.37;5.10;;;15.40;92.40;;;;;;6146470;23;20904;-72
2023/04/26 10:10:36;;;;;;;5.80;5.17;;;15.50;92.30;;;;;;6143209;23;20437;-71
2023/04/26 10:13:06;;;;;;;5.83;4.57;;;15.40;92.30;;;;;;6149508;23;20515;-72
2023/04/26 10:15:33;;;;;;;5.40;4.90;;;15.20;92.70;;;;;;6142467;23;20461;-72
2023/04/26 10:18:00;;;;;;;6.00;5.27;;;15.30;93.30;;;;;;6141146;23;20914;-71
2023/04/26 10:20:28;;;;;;;5.20;4.30;;;15.60;93.10;;;;;;6143504;23;20940;-72
2023/04/26 10:23:00;;;;;;;4.87;4.37;;;15.90;92.90;;;;;;6135907;23;20937;-72
2023/04/26 10:25:39;;;;;;;5.13;4.63;;;16.30;92.30;;;;;;6148667;23;20437;-72
2023/04/26 10:28:06;;;;;;;5.20;4.50;;;16.60;91.80;;;;;;6149612;23;20433;-72
2023/04/26 10:30:53;;;;;;;6.77;4.83;;;17.10;91.60;;;;;;6143662;23;21074;-72
2023/04/26 10:33:22;;;;;;;5.40;4.37;;;17.50;90.20;;;;;;6146079;23;20496;-72
2023/04/26 10:36:07;;;;;;;8.80;4.93;;;17.90;90.20;;;;;;6144365;23;20445;-72
2023/04/26 10:38:36;;;;;;;5.17;4.70;;;18.40;87.70;;;;;;6145600;23;20456;-72
2023/04/26 10:41:34;;;;;;;7.43;3.87;;;18.50;87.40;;;;;;6149027;23;20437;-72
2023/04/26 10:44:35;;;;;;;4.33;3.90;;;19.00;87.70;;;;;;6148962;23;20451;-73
2023/04/26 10:47:04;;;;;;;4.43;3.43;;;19.70;82.60;;;;;;6146565;23;20492;-73
2023/04/26 10:49:44;;;;;;;4.93;4.23;;;20.20;81.10;;;;;;6128083;23;20469;-72
2023/04/26 10:52:13;;;;;;;5.57;4.00;;;20.00;76.90;;;;;;6137043;23;20437;-72
2023/04/26 10:54:55;;;;;;;4.60;3.53;;;19.90;79.70;;;;;;6139110;23;20460;-72
2023/04/26 10:57:45;;;;;;;3.90;3.27;;;19.60;76.70;;;;;;6140924;23;21075;-73
2023/04/26 11:00:30;;;;;;;3.53;3.13;;;19.50;77.40;;;;;;6145895;23;20838;-72
2023/04/26 11:03:02;;;;;;;4.80;3.40;;;19.40;77.80;;;;;;6136670;23;20898;-72
2023/04/26 11:05:52;;;;;;;4.47;3.70;;;19.30;76.80;;;;;;6148061;23;20436;-72
2023/04/26 11:08:20;;;;;;;4.93;3.60;;;19.10;76.50;;;;;;6137948;23;20483;-71
2023/04/26 11:11:08;;;;;;;3.93;3.63;;;18.90;76.70;;;;;;6149174;23;20452;-72
2023/04/26 11:13:38;;;;;;;3.70;3.30;;;18.50;76.70;;;;;;6138567;23;20936;-72
2023/04/26 11:16:06;;;;;;;6.10;3.67;;;18.30;77.20;;;;;;6140091;23;20487;-72
2023/04/26 11:18:35;;;;;;;4.93;3.87;;;17.90;76.50;;;;;;6143186;23;20499;-72
2023/04/26 11:21:03;;;;;;;4.43;3.60;;;17.50;75.00;;;;;;6140415;23;20429;-72
2023/04/26 11:23:30;;;;;;;4.80;3.57;;;17.10;77.50;;;;;;6145011;23;20942;-72
2023/04/26 11:25:58;;;;;;;4.67;3.07;;;17.20;75.70;;;;;;6148594;23;20496;-72
2023/04/26 11:28:25;;;;;;;3.90;3.50;;;16.80;77.10;;;;;;6139697;23;20456;-72
2023/04/26 11:30:54;;;;;;;3.43;3.17;;;17.00;76.00;;;;;;6141377;23;20503;-71
2023/04/26 11:33:22;;;;;;;5.50;4.07;;;16.70;76.60;;;;;;6146384;23;20437;-72
2023/04/26 11:35:50;;;;;;;4.53;3.63;;;17.10;78.00;;;;;;6148783;23;20436;-73
2023/04/26 11:38:18;;;;;;;4.90;3.87;;;17.40;78.90;;;;;;6146312;23;20456;-73
2023/04/26 11:40:52;;;;;;;4.53;4.13;;;17.80;78.70;;;;;;6149067;23;20444;-72
2023/04/26 11:43:20;;;;;;;4.40;4.00;;;17.30;78.50;;;;;;6142256;23;20915;-72
2023/04/26 11:45:47;;;;;;;4.70;3.83;;;17.30;78.10;;;;;;6146241;23;20437;-72
2023/04/26 11:48:16;;;;;;;5.00;3.93;;;16.70;77.30;;;;;;6139390;23;20430;-72
2023/04/26 11:50:43;;;;;;;5.23;4.33;;;16.30;78.30;;;;;;6145320;23;20511;-71
2023/04/26 11:53:10;;;;;;;5.23;3.97;;;16.10;78.30;;;;;;6149213;23;20481;-72
2023/04/26 11:55:40;;;;;;;5.07;4.27;;;16.10;79.70;;;;;;6149438;23;20491;-72
2023/04/26 11:58:13;;;;;;;4.57;4.13;;;16.40;77.80;;;;;;6143326;23;20817;-72
2023/04/26 12:00:55;;;;;;;5.00;4.43;;;17.00;77.70;;;;;;6141208;23;20444;-72
2023/04/26 12:03:24;;;;;;;4.33;3.90;;;17.60;75.10;;;;;;6147778;23;20427;-72
2023/04/26 12:05:55;;;;;;;6.00;3.73;;;17.80;73.80;;;;;;6149905;23;20420;-72
2023/04/26 12:08:24;;;;;;;5.90;3.87;;;18.20;74.50;;;;;;6149674;23;20435;-72
2023/04/26 12:10:51;;;;;;;4.10;3.70;;;18.70;75.30;;;;;;6147032;23;20537;-72
2023/04/26 12:13:19;;;;;;;4.33;3.93;;;18.60;74.70;;;;;;6149913;23;20500;-72
2023/04/26 12:15:49;;;;;;;4.03;3.60;;;18.20;74.30;;;;;;6148617;23;20436;-72
2023/04/26 12:18:16;;;;;;;4.63;4.23;;;18.30;75.10;;;;;;6149236;23;20531;-72
2023/04/26 12:20:45;;;;;;;4.17;3.77;;;18.20;72.80;;;;;;6141485;23;20520;-72
2023/04/26 12:23:15;;;;;;;5.13;3.80;;;18.00;72.80;;;;;;6146198;23;20436;-72
2023/04/26 12:25:51;;;;;;;4.63;4.03;;;18.00;72.00;;;;;;6144253;23;20412;-72
2023/04/26 12:28:18;;;;;;;4.30;3.80;;;17.80;71.40;;;;;;6149473;23;20467;-72
2023/04/26 12:30:45;;;;;;;5.10;4.20;;;17.70;72.20;;;;;;6146769;23;20515;-72
2023/04/26 12:33:12;;;;;;;5.17;4.30;;;17.30;74.00;;;;;;6142111;23;20511;-72
2023/04/26 12:35:39;;;;;;;4.23;3.83;;;17.40;73.30;;;;;;6147137;23;20581;-72
2023/04/26 12:38:08;;;;;;;4.30;3.90;;;17.30;75.10;;;;;;6142139;23;20540;-72
2023/04/26 12:40:36;;;;;;;4.23;3.77;;;17.40;74.60;;;;;;6148516;23;20429;-72
2023/04/26 12:43:03;;;;;;;3.83;3.43;;;17.40;72.20;;;;;;6139554;23;20553;-72
2023/04/26 12:45:30;;;;;;;5.73;4.17;;;17.00;72.40;;;;;;6139108;23;20979;-72
2023/04/26 12:47:57;;;;;;;3.93;3.30;;;17.00;73.20;;;;;;6141425;23;20492;-72
2023/04/26 12:50:24;;;;;;;4.00;3.70;;;17.10;75.10;;;;;;6147320;23;20445;-72
2023/04/26 12:52:51;;;;;;;4.27;3.87;;;17.50;75.40;;;;;;6146357;23;20473;-72
2023/04/26 12:55:20;;;;;;;4.60;4.20;;;17.60;73.10;;;;;;6139638;23;20524;-72